Time;durP1;ratioP1;P1;durP2;ratioP2;P2;SDS_P1;SDS_P2;PMS_P1;PMS_P2;Temp;Humidity;BMP_temperature;BMP_pressure;BME280_temperature;BME280_humidity;BME280_pressure;Samples;Min_cycle;Max_cycle;Signal;HPM_P1;HPM_P2
2021/10/09 00:01:16;;;;;;;11.83;8.20;;;6.00;99.90;;;;;;4969352;28;20299;-79
2021/10/09 00:03:42;;;;;;;11.30;8.97;;;5.90;99.90;;;;;;4971020;28;20177;-83
2021/10/09 00:06:07;;;;;;;14.77;8.97;;;5.80;99.90;;;;;;4974791;28;20340;-79
2021/10/09 00:08:33;;;;;;;13.97;8.93;;;5.80;99.90;;;;;;4974707;28;20181;-79
2021/10/09 00:11:00;;;;;;;14.03;9.07;;;5.80;99.90;;;;;;4969868;28;20665;-83
2021/10/09 00:13:26;;;;;;;12.40;8.47;;;5.80;99.90;;;;;;4978472;28;20723;-81
2021/10/09 00:15:51;;;;;;;10.97;8.40;;;5.80;99.90;;;;;;4974311;28;20185;-81
2021/10/09 00:18:17;;;;;;;17.53;9.50;;;5.80;99.90;;;;;;4975102;28;20215;-78
2021/10/09 00:20:43;;;;;;;10.63;8.23;;;5.80;99.90;;;;;;4980817;28;20184;-79
2021/10/09 00:23:08;;;;;;;12.53;7.97;;;5.70;99.90;;;;;;4977994;28;20270;-83
2021/10/09 00:25:34;;;;;;;12.13;8.27;;;5.70;99.90;;;;;;4977819;28;20632;-80
2021/10/09 00:27:59;;;;;;;13.07;8.90;;;5.70;99.90;;;;;;4975584;28;20768;-80
2021/10/09 00:30:25;;;;;;;10.57;7.90;;;5.60;99.90;;;;;;4971270;28;20172;-80
2021/10/09 00:32:50;;;;;;;13.07;8.13;;;5.50;99.90;;;;;;4938338;28;1089841;-83
2021/10/09 00:35:16;;;;;;;11.77;8.20;;;5.40;99.90;;;;;;4971942;28;20235;-82
2021/10/09 00:37:42;;;;;;;12.13;7.67;;;5.30;99.90;;;;;;4976761;28;20567;-80
2021/10/09 00:40:08;;;;;;;11.47;7.33;;;5.30;99.90;;;;;;4972377;28;20639;-83
2021/10/09 00:42:34;;;;;;;10.27;8.20;;;5.30;99.90;;;;;;4974969;28;20197;-82
2021/10/09 00:44:59;;;;;;;11.40;8.63;;;5.30;99.90;;;;;;4973198;28;20221;-78
2021/10/09 00:47:25;;;;;;;14.60;8.47;;;5.30;99.90;;;;;;4974288;28;20223;-80
2021/10/09 00:49:52;;;;;;;11.47;8.07;;;5.40;99.90;;;;;;4981838;28;20283;-82
2021/10/09 00:52:18;;;;;;;13.87;8.10;;;5.30;99.90;;;;;;4976409;28;20208;-82
2021/10/09 00:54:46;;;;;;;12.00;8.00;;;5.20;99.90;;;;;;4975089;28;20605;-81
2021/10/09 00:57:13;;;;;;;10.10;7.63;;;5.10;99.90;;;;;;4970003;28;20908;-79
2021/10/09 00:59:40;;;;;;;10.30;7.93;;;5.20;99.90;;;;;;4977234;28;20291;-81
2021/10/09 01:02:06;;;;;;;12.37;8.43;;;5.30;99.90;;;;;;4975816;28;20201;-80
2021/10/09 01:04:32;;;;;;;11.33;7.30;;;5.20;99.90;;;;;;4975356;28;20191;-78
2021/10/09 01:06:59;;;;;;;9.63;7.93;;;5.30;99.90;;;;;;4968229;28;20570;-79
2021/10/09 01:09:25;;;;;;;13.93;7.93;;;5.20;99.90;;;;;;4969829;28;20185;-80
2021/10/09 01:11:50;;;;;;;12.10;8.13;;;5.10;99.90;;;;;;4972441;28;20214;-78
2021/10/09 01:14:16;;;;;;;16.10;8.13;;;5.10;99.90;;;;;;4971003;28;20184;-80
2021/10/09 01:16:41;;;;;;;10.37;7.83;;;5.10;99.90;;;;;;4975643;28;20184;-80
2021/10/09 01:19:08;;;;;;;10.33;7.30;;;5.10;99.90;;;;;;4973537;28;20210;-82
2021/10/09 01:21:39;;;;;;;11.60;7.93;;;5.00;99.90;;;;;;4979181;28;20215;-81
2021/10/09 01:24:05;;;;;;;10.23;7.03;;;5.00;99.90;;;;;;4975938;28;20190;-81
2021/10/09 01:26:31;;;;;;;11.43;8.13;;;5.00;99.90;;;;;;4975641;28;20180;-80
2021/10/09 01:28:56;;;;;;;10.40;7.43;;;4.90;99.90;;;;;;4969655;28;20223;-78
2021/10/09 01:31:22;;;;;;;10.60;7.23;;;4.90;99.90;;;;;;4970740;28;20223;-78
2021/10/09 01:33:48;;;;;;;10.70;7.57;;;4.90;99.90;;;;;;4970663;28;20298;-79
2021/10/09 01:36:14;;;;;;;13.57;7.97;;;4.90;99.90;;;;;;4978475;28;20203;-77
2021/10/09 01:38:40;;;;;;;10.50;7.43;;;4.90;99.90;;;;;;4976212;28;20279;-79
2021/10/09 01:41:06;;;;;;;10.37;7.67;;;5.00;99.90;;;;;;4974960;28;20303;-76
2021/10/09 01:43:32;;;;;;;10.90;8.00;;;5.00;99.90;;;;;;4979037;28;20282;-80
2021/10/09 01:45:58;;;;;;;13.93;8.60;;;4.90;99.90;;;;;;4983006;28;20251;-76
2021/10/09 01:48:38;;;;;;;11.00;7.77;;;5.00;99.90;;;;;;4974206;28;20185;-78
2021/10/09 01:51:06;;;;;;;13.30;7.60;;;5.00;99.90;;;;;;4973404;28;20211;-80
2021/10/09 01:53:32;;;;;;;10.47;7.67;;;4.90;99.90;;;;;;4965492;28;20218;-78
2021/10/09 01:55:58;;;;;;;15.07;7.63;;;4.80;99.90;;;;;;4975246;28;20184;-78
2021/10/09 01:58:24;;;;;;;14.33;7.53;;;4.70;99.90;;;;;;4972401;28;20266;-80
2021/10/09 02:00:50;;;;;;;12.13;7.63;;;4.70;99.90;;;;;;4973176;28;20615;-79
2021/10/09 02:03:18;;;;;;;12.90;8.27;;;4.80;99.90;;;;;;4968509;28;20519;-80
2021/10/09 02:05:45;;;;;;;10.83;7.13;;;4.80;99.90;;;;;;4975423;28;20189;-79
2021/10/09 02:08:11;;;;;;;11.23;7.43;;;4.70;99.90;;;;;;4973552;28;20195;-78
2021/10/09 02:10:47;;;;;;;13.10;7.67;;;4.60;99.90;;;;;;4978868;28;20584;-79
2021/10/09 02:13:16;;;;;;;11.90;7.07;;;4.60;99.90;;;;;;4970891;28;20192;-80
2021/10/09 02:15:47;;;;;;;11.63;7.03;;;4.50;99.90;;;;;;4969423;28;20181;-75
2021/10/09 02:26:19;;;;;;;10.30;7.43;;;4.40;99.90;;;;;;4976833;28;20203;-83
2021/10/09 02:28:45;;;;;;;11.07;7.60;;;4.40;99.90;;;;;;4972989;28;20551;-81
2021/10/09 02:31:11;;;;;;;10.00;7.57;;;4.40;99.90;;;;;;4972255;28;20224;-77
2021/10/09 02:33:37;;;;;;;10.20;7.07;;;4.60;99.90;;;;;;4977489;28;20197;-82
2021/10/09 02:36:03;;;;;;;11.37;7.27;;;4.50;99.90;;;;;;4977313;28;20544;-81
2021/10/09 02:38:28;;;;;;;10.63;7.17;;;4.50;99.90;;;;;;4972898;28;20209;-77
2021/10/09 02:40:54;;;;;;;11.47;7.10;;;4.50;99.90;;;;;;4973631;28;20252;-79
2021/10/09 02:43:20;;;;;;;11.10;6.93;;;4.40;99.90;;;;;;4968095;28;20205;-79
2021/10/09 02:45:46;;;;;;;10.03;6.80;;;4.50;99.90;;;;;;4971088;28;20330;-79
2021/10/09 02:48:15;;;;;;;9.70;7.13;;;4.50;99.90;;;;;;4974158;28;20223;-79
2021/10/09 02:50:41;;;;;;;11.93;6.83;;;4.40;99.90;;;;;;4971087;28;20649;-80
2021/10/09 02:53:07;;;;;;;9.77;6.57;;;4.40;99.90;;;;;;4974019;28;20637;-79
2021/10/09 02:55:32;;;;;;;9.87;6.63;;;4.40;99.90;;;;;;4971354;28;20220;-78
2021/10/09 02:57:58;;;;;;;11.33;7.20;;;4.30;99.90;;;;;;4970876;28;20565;-80
2021/10/09 03:00:24;;;;;;;9.23;6.77;;;4.20;99.90;;;;;;4964944;28;20272;-78
2021/10/09 03:02:49;;;;;;;11.33;6.80;;;4.30;99.90;;;;;;4973566;28;20657;-79
2021/10/09 03:05:15;;;;;;;9.93;6.57;;;4.20;99.90;;;;;;4974198;28;20184;-78
2021/10/09 03:07:41;;;;;;;11.47;6.80;;;4.10;99.90;;;;;;4971523;28;20425;-79
2021/10/09 03:10:08;;;;;;;8.93;6.43;;;4.10;99.90;;;;;;4972619;28;20267;-79
2021/10/09 03:12:34;;;;;;;12.80;7.47;;;4.10;99.90;;;;;;4973168;28;20233;-80
2021/10/09 03:15:00;;;;;;;12.33;6.93;;;4.10;99.90;;;;;;4969396;28;20239;-80
2021/10/09 03:17:26;;;;;;;11.67;7.20;;;4.00;99.90;;;;;;4974846;28;20185;-80
2021/10/09 03:19:51;;;;;;;10.93;7.57;;;4.00;99.90;;;;;;4970187;28;20667;-76
2021/10/09 03:22:17;;;;;;;10.37;7.17;;;3.90;99.90;;;;;;4974550;28;20205;-80
2021/10/09 03:24:43;;;;;;;10.27;7.07;;;4.00;99.90;;;;;;4974700;28;20280;-78
2021/10/09 03:27:09;;;;;;;12.23;7.10;;;4.00;99.90;;;;;;4988042;28;20647;-80
2021/10/09 03:29:35;;;;;;;11.33;6.90;;;4.00;99.90;;;;;;4967928;28;20264;-77
2021/10/09 03:32:00;;;;;;;11.43;7.53;;;4.00;99.90;;;;;;4971549;28;20224;-79
2021/10/09 03:34:32;;;;;;;12.27;7.63;;;3.90;99.90;;;;;;4969183;28;20593;-78
2021/10/09 03:36:59;;;;;;;11.87;7.70;;;3.90;99.90;;;;;;4972093;28;20206;-77
2021/10/09 03:39:25;;;;;;;12.17;7.00;;;3.90;99.90;;;;;;4968682;28;20201;-81
2021/10/09 03:41:58;;;;;;;13.03;7.20;;;3.80;99.90;;;;;;4975055;28;20235;-78
2021/10/09 03:44:24;;;;;;;9.93;7.07;;;3.80;99.90;;;;;;4974404;28;20272;-77
2021/10/09 03:47:00;;;;;;;12.77;6.97;;;3.80;99.90;;;;;;4968782;28;20281;-78
2021/10/09 03:49:46;;;;;;;9.43;7.00;;;3.80;99.90;;;;;;4969846;28;20287;-80
2021/10/09 03:55:15;;;;;;;9.37;6.40;;;3.70;99.90;;;;;;4917944;29;20244;-78
2021/10/09 03:57:42;;;;;;;11.07;7.00;;;3.60;99.90;;;;;;4952481;28;20248;-78
2021/10/09 04:00:09;;;;;;;12.10;7.90;;;3.60;99.90;;;;;;4978209;28;20667;-78
2021/10/09 04:02:35;;;;;;;10.93;8.13;;;3.60;99.90;;;;;;4973638;28;20347;-80
2021/10/09 04:05:01;;;;;;;9.70;7.50;;;3.40;99.90;;;;;;4972189;28;20181;-77
2021/10/09 04:07:27;;;;;;;13.20;7.67;;;3.30;99.90;;;;;;4973742;28;20196;-77
2021/10/09 04:09:52;;;;;;;12.20;8.17;;;3.20;99.90;;;;;;4972623;28;20291;-80
2021/10/09 04:12:18;;;;;;;10.03;7.70;;;3.20;99.90;;;;;;4965287;28;20324;-78
2021/10/09 04:14:44;;;;;;;12.17;7.67;;;3.30;99.90;;;;;;4974212;28;20662;-80
2021/10/09 04:17:09;;;;;;;11.97;8.13;;;3.40;99.90;;;;;;4975430;28;20181;-82
2021/10/09 04:19:35;;;;;;;11.63;8.20;;;3.40;99.90;;;;;;4971766;28;20269;-78
2021/10/09 04:22:01;;;;;;;14.57;9.30;;;3.30;99.90;;;;;;4967124;28;20212;-79
2021/10/09 04:24:26;;;;;;;15.53;9.37;;;3.30;99.90;;;;;;4976345;28;20192;-78
2021/10/09 04:26:52;;;;;;;17.67;9.50;;;3.30;99.90;;;;;;4976436;28;20188;-79
2021/10/09 04:29:18;;;;;;;15.70;9.80;;;3.40;99.90;;;;;;4972184;28;20252;-80
2021/10/09 04:31:44;;;;;;;15.47;10.07;;;3.40;99.90;;;;;;4973740;28;20224;-81
2021/10/09 04:34:10;;;;;;;16.13;9.90;;;3.40;99.90;;;;;;4976043;28;20181;-78
2021/10/09 04:36:35;;;;;;;16.53;10.30;;;3.40;99.90;;;;;;4972531;28;20176;-80
2021/10/09 04:39:01;;;;;;;15.10;9.93;;;3.40;99.90;;;;;;4970259;28;20193;-77
2021/10/09 04:41:26;;;;;;;18.80;9.83;;;3.40;99.90;;;;;;4965757;28;20201;-78
2021/10/09 04:43:52;;;;;;;14.67;9.93;;;3.40;99.90;;;;;;4980089;28;20271;-78
2021/10/09 04:46:18;;;;;;;15.87;10.27;;;3.40;99.90;;;;;;4975807;28;20859;-79
2021/10/09 04:48:43;;;;;;;13.80;9.43;;;3.40;99.90;;;;;;4977740;28;20674;-77
2021/10/09 04:51:09;;;;;;;16.57;8.97;;;3.40;99.90;;;;;;4973473;28;20223;-76
2021/10/09 04:53:35;;;;;;;14.87;10.17;;;3.40;99.90;;;;;;4974865;28;20207;-78
2021/10/09 04:56:00;;;;;;;14.13;9.03;;;3.40;99.90;;;;;;4968538;28;20181;-77
2021/10/09 04:58:26;;;;;;;16.67;9.63;;;3.30;99.90;;;;;;4968629;28;20617;-80
2021/10/09 05:00:51;;;;;;;15.63;9.43;;;3.30;99.90;;;;;;4975533;28;20675;-77
2021/10/09 05:03:18;;;;;;;15.63;9.47;;;3.30;99.90;;;;;;4973539;28;20193;-78
2021/10/09 05:05:44;;;;;;;16.47;9.73;;;3.30;99.90;;;;;;4969595;28;20189;-78
2021/10/09 05:08:10;;;;;;;13.67;9.33;;;3.30;99.90;;;;;;4976936;28;20212;-79
2021/10/09 05:10:37;;;;;;;13.23;9.40;;;3.30;99.90;;;;;;4977442;28;20180;-78
2021/10/09 05:13:04;;;;;;;15.87;9.93;;;3.30;99.90;;;;;;4972083;28;20243;-79
2021/10/09 05:15:30;;;;;;;15.50;9.63;;;3.20;99.90;;;;;;4974072;28;20252;-80
2021/10/09 05:17:55;;;;;;;12.40;9.50;;;3.40;99.90;;;;;;4976958;28;20263;-80
2021/10/09 05:20:21;;;;;;;17.27;10.37;;;3.30;99.90;;;;;;4977027;28;20512;-79
2021/10/09 05:22:47;;;;;;;14.23;10.43;;;3.20;99.90;;;;;;4972659;28;20220;-78
2021/10/09 05:25:12;;;;;;;18.23;9.77;;;3.20;99.90;;;;;;4976500;28;20370;-79
2021/10/09 05:27:41;;;;;;;12.03;8.97;;;3.20;99.90;;;;;;4975844;28;20176;-78
2021/10/09 05:30:10;;;;;;;14.53;9.30;;;3.10;99.90;;;;;;4972328;28;20225;-77
2021/10/09 05:32:46;;;;;;;14.07;9.33;;;3.20;99.90;;;;;;4974752;28;20215;-79
2021/10/09 05:35:12;;;;;;;14.07;9.40;;;3.10;99.90;;;;;;4973579;28;20182;-77
2021/10/09 05:37:37;;;;;;;15.77;9.53;;;3.10;99.90;;;;;;4975898;28;20549;-81
2021/10/09 05:40:04;;;;;;;14.23;9.70;;;3.10;99.90;;;;;;4976927;28;20177;-77
2021/10/09 05:42:29;;;;;;;14.40;9.37;;;3.10;99.90;;;;;;4978757;28;20200;-78
2021/10/09 05:44:56;;;;;;;15.77;9.40;;;3.20;99.90;;;;;;4974729;28;20538;-77
2021/10/09 05:47:22;;;;;;;14.50;9.00;;;3.20;99.90;;;;;;4973832;28;20820;-80
2021/10/09 05:49:52;;;;;;;14.53;8.97;;;3.20;99.90;;;;;;4977761;28;20671;-79
2021/10/09 05:52:36;;;;;;;14.27;9.57;;;3.20;99.90;;;;;;4975801;28;20196;-76
2021/10/09 05:55:15;;;;;;;13.67;9.60;;;3.10;99.90;;;;;;4975977;28;20228;-78
2021/10/09 06:00:59;;;;;;;14.03;9.47;;;3.20;99.90;;;;;;4973587;28;20177;-80
2021/10/09 07:00:21;;;;;;;16.03;9.50;;;4.70;99.90;;;;;;4976144;28;20199;-77
2021/10/09 07:02:46;;;;;;;13.37;9.10;;;4.80;99.90;;;;;;4978407;28;20196;-78
2021/10/09 07:05:16;;;;;;;16.63;10.33;;;4.90;99.90;;;;;;4974440;28;20189;-77
2021/10/09 07:07:48;;;;;;;18.37;10.90;;;5.00;99.90;;;;;;4976216;28;20188;-77
2021/10/09 07:10:15;;;;;;;20.93;11.17;;;5.30;99.90;;;;;;4974584;28;20232;-79
2021/10/09 07:12:40;;;;;;;14.47;10.00;;;5.50;99.90;;;;;;4976314;28;20565;-77
2021/10/09 07:15:11;;;;;;;14.37;10.40;;;5.70;99.90;;;;;;4976977;28;20215;-78
2021/10/09 07:17:37;;;;;;;17.53;10.47;;;5.80;99.90;;;;;;4976721;28;20545;-79
2021/10/09 07:20:06;;;;;;;15.63;10.27;;;6.00;99.90;;;;;;4976315;28;20184;-79
2021/10/09 07:22:32;;;;;;;15.87;10.23;;;6.10;99.90;;;;;;4974091;28;20659;-78
2021/10/09 07:24:58;;;;;;;14.67;9.60;;;6.20;99.90;;;;;;4974174;28;20263;-79
2021/10/09 07:27:24;;;;;;;17.63;10.10;;;6.30;99.90;;;;;;4975452;28;20271;-77
2021/10/09 07:29:50;;;;;;;17.50;10.07;;;6.40;99.90;;;;;;4976206;28;20292;-82
2021/10/09 07:32:15;;;;;;;17.27;10.13;;;6.50;99.90;;;;;;4974682;28;20228;-81
2021/10/09 07:34:41;;;;;;;17.90;10.73;;;6.60;99.90;;;;;;4977711;28;20180;-81
2021/10/09 07:37:07;;;;;;;15.27;9.90;;;6.70;99.90;;;;;;4977074;28;20640;-80
2021/10/09 07:39:33;;;;;;;15.37;9.97;;;6.70;99.90;;;;;;4978178;28;20635;-80
2021/10/09 07:41:59;;;;;;;14.33;10.13;;;6.80;99.90;;;;;;4977039;28;20243;-79
2021/10/09 07:44:25;;;;;;;15.87;9.97;;;6.90;99.90;;;;;;4975815;28;20197;-79
2021/10/09 07:46:51;;;;;;;14.13;9.40;;;6.90;99.90;;;;;;4974928;28;20193;-79
2021/10/09 07:49:17;;;;;;;13.27;9.43;;;6.90;99.90;;;;;;4974681;28;20222;-79
2021/10/09 07:51:43;;;;;;;16.80;10.77;;;6.90;99.90;;;;;;4975434;28;20296;-76
2021/10/09 07:54:09;;;;;;;14.47;10.47;;;7.00;99.90;;;;;;4977046;28;20184;-76
2021/10/09 07:56:35;;;;;;;13.83;9.77;;;7.10;99.90;;;;;;4976825;28;20227;-76
2021/10/09 07:59:01;;;;;;;14.63;10.03;;;7.20;99.90;;;;;;4972833;28;20659;-79
2021/10/09 08:01:27;;;;;;;16.27;10.50;;;7.30;99.90;;;;;;4976027;28;20217;-78
2021/10/09 08:03:52;;;;;;;16.83;10.90;;;7.40;99.90;;;;;;4974144;28;21087;-80
2021/10/09 08:06:18;;;;;;;17.03;10.70;;;7.50;99.90;;;;;;4974707;28;20188;-78
2021/10/09 08:08:44;;;;;;;14.17;10.20;;;7.70;99.90;;;;;;4976094;28;20287;-79
2021/10/09 08:11:10;;;;;;;18.80;11.50;;;7.80;99.90;;;;;;4975977;28;20232;-77
2021/10/09 08:13:38;;;;;;;14.37;10.20;;;7.80;99.90;;;;;;4973389;28;20199;-79
2021/10/09 08:16:04;;;;;;;15.27;10.40;;;7.90;99.90;;;;;;4959776;28;20192;-80
2021/10/09 08:18:31;;;;;;;16.73;10.90;;;8.00;99.90;;;;;;4978061;28;20521;-78
2021/10/09 08:21:01;;;;;;;15.30;10.47;;;8.10;99.90;;;;;;4979859;28;20223;-77
2021/10/09 08:23:31;;;;;;;17.77;11.03;;;8.10;99.90;;;;;;4977840;28;20207;-77
2021/10/09 08:39:44;;;;;;;16.47;10.37;;;8.90;99.90;;;;;;4974803;28;20248;-77
2021/10/09 08:42:10;;;;;;;15.33;10.23;;;9.10;99.90;;;;;;4977533;28;20278;-78
2021/10/09 08:44:38;;;;;;;16.20;9.80;;;9.10;99.90;;;;;;4978671;28;20212;-78
2021/10/09 08:47:04;;;;;;;24.07;10.63;;;9.30;99.90;;;;;;4980846;28;20235;-78
2021/10/09 08:49:32;;;;;;;13.77;9.53;;;9.40;99.90;;;;;;4978227;28;20598;-79
2021/10/09 08:51:59;;;;;;;17.10;10.10;;;9.40;99.90;;;;;;4978718;28;20204;-76
2021/10/09 08:54:36;;;;;;;21.70;11.03;;;9.40;99.90;;;;;;4978925;28;20812;-79
2021/10/09 08:57:32;;;;;;;18.20;10.70;;;9.60;99.90;;;;;;4978005;28;20228;-80
2021/10/09 09:00:06;;;;;;;15.77;10.67;;;9.70;99.90;;;;;;4980408;28;20164;-76
2021/10/09 09:02:37;;;;;;;16.77;10.50;;;9.80;99.90;;;;;;4976800;28;20599;-76
2021/10/09 09:05:31;;;;;;;14.67;10.33;;;9.90;99.90;;;;;;4981781;28;20230;-81
2021/10/09 09:36:05;;;;;;;13.17;9.30;;;11.00;99.90;;;;;;4979177;28;20185;-79
2021/10/09 09:41:48;;;;;;;12.37;9.03;;;11.20;99.90;;;;;;4926984;29;20206;-77
2021/10/09 09:44:15;;;;;;;11.63;8.02;;;11.40;99.90;;;;;;4968995;28;20193;-77
2021/10/09 09:46:41;;;;;;;13.48;8.55;;;11.50;99.90;;;;;;4978198;28;20199;-76
2021/10/09 09:49:07;;;;;;;14.90;9.40;;;11.70;99.90;;;;;;4977422;28;20779;-76
2021/10/09 09:51:37;;;;;;;14.03;7.57;;;11.70;99.90;;;;;;4978014;28;20200;-76
2021/10/09 09:54:03;;;;;;;12.93;8.77;;;11.50;99.90;;;;;;4976345;28;20273;-79
2021/10/09 09:56:29;;;;;;;13.47;7.23;;;11.60;99.90;;;;;;4978123;28;20720;-78
2021/10/09 09:59:00;;;;;;;15.13;7.35;;;11.50;99.90;;;;;;4975558;28;20290;-78
2021/10/09 10:01:32;;;;;;;10.18;7.32;;;11.80;99.90;;;;;;4976571;28;20206;-81
2021/10/09 10:03:59;;;;;;;10.93;6.75;;;11.90;99.90;;;;;;4978397;28;21169;-77
2021/10/09 10:06:29;;;;;;;10.35;6.88;;;11.90;99.90;;;;;;4974663;28;20696;-76
2021/10/09 10:08:56;;;;;;;11.57;6.97;;;11.90;99.90;;;;;;4979441;28;20260;-78
2021/10/09 10:11:23;;;;;;;14.90;6.63;;;11.90;99.90;;;;;;4967763;28;20396;-77
2021/10/09 10:13:50;;;;;;;8.98;6.07;;;12.00;99.90;;;;;;4978292;28;20189;-78
2021/10/09 10:16:17;;;;;;;9.20;6.45;;;12.10;99.90;;;;;;4975484;28;20188;-78
2021/10/09 10:18:45;;;;;;;11.45;6.47;;;12.10;99.90;;;;;;4967546;28;20172;-75
2021/10/09 10:21:13;;;;;;;9.90;5.95;;;12.00;99.90;;;;;;4975445;28;20200;-77
2021/10/09 10:23:41;;;;;;;9.10;6.18;;;12.10;99.90;;;;;;4971194;28;20184;-79
2021/10/09 10:26:30;;;;;;;13.60;6.72;;;12.20;99.90;;;;;;4972403;28;20190;-79
2021/10/09 10:28:56;;;;;;;10.90;6.25;;;12.30;99.90;;;;;;4975235;28;20299;-77
2021/10/09 10:31:23;;;;;;;8.63;5.88;;;12.30;99.90;;;;;;4974384;28;20715;-77
2021/10/09 10:33:59;;;;;;;9.50;6.18;;;12.00;99.90;;;;;;4976495;28;20239;-80
2021/10/09 10:36:44;;;;;;;8.80;6.00;;;12.10;99.90;;;;;;4975970;28;20637;-77
2021/10/09 10:39:13;;;;;;;8.65;6.18;;;12.20;99.90;;;;;;4978475;28;20197;-77
2021/10/09 10:41:55;;;;;;;10.80;7.28;;;12.30;99.90;;;;;;4975332;28;20212;-76
2021/10/09 10:44:44;;;;;;;8.88;6.70;;;12.40;99.90;;;;;;4986311;23;20228;-84
2021/10/09 10:47:50;;;;;;;10.05;6.57;;;12.50;99.90;;;;;;4985543;28;20184;-84
2021/10/09 10:53:34;;;;;;;8.38;6.22;;;12.70;99.90;;;;;;4984092;28;20199;-85
2021/10/09 10:56:10;;;;;;;7.40;6.15;;;12.70;99.90;;;;;;4985255;28;20588;-85
2021/10/09 10:58:37;;;;;;;13.45;6.38;;;12.90;99.90;;;;;;4987341;28;20188;-84
2021/10/09 11:01:26;;;;;;;10.57;5.82;;;12.90;99.90;;;;;;4986782;28;20199;-86
2021/10/09 11:03:54;;;;;;;10.48;5.40;;;13.10;99.90;;;;;;4984110;28;20843;-84
2021/10/09 11:06:22;;;;;;;8.45;5.00;;;13.10;99.90;;;;;;4983421;28;20207;-82
2021/10/09 11:08:49;;;;;;;5.65;4.18;;;13.20;99.90;;;;;;4999783;28;20216;-86
2021/10/09 11:11:16;;;;;;;9.35;4.38;;;13.30;99.90;;;;;;4982933;28;20184;-84
2021/10/09 11:13:46;;;;;;;7.35;4.10;;;13.20;99.90;;;;;;4984020;28;20203;-83
2021/10/09 11:16:12;;;;;;;8.05;4.95;;;13.30;99.90;;;;;;5001633;28;20204;-84
2021/10/09 11:18:52;;;;;;;7.68;4.90;;;13.30;99.90;;;;;;4985008;28;20570;-85
2021/10/09 11:21:19;;;;;;;5.88;4.50;;;13.40;99.90;;;;;;4985909;28;20411;-84
2021/10/09 11:23:55;;;;;;;6.85;5.00;;;13.40;99.90;;;;;;4985219;28;20188;-86
2021/10/09 11:26:28;;;;;;;7.32;4.85;;;13.40;99.90;;;;;;4984980;28;20214;-85
2021/10/09 11:29:02;;;;;;;5.35;4.63;;;13.50;99.90;;;;;;4987246;28;20208;-85
2021/10/09 11:31:28;;;;;;;7.60;4.78;;;13.60;99.90;;;;;;4986552;28;20278;-86
2021/10/09 11:33:59;;;;;;;11.38;4.80;;;13.60;99.90;;;;;;4983990;28;20248;-84
2021/10/09 11:36:26;;;;;;;7.13;4.38;;;13.60;99.90;;;;;;4984191;28;20682;-84
2021/10/09 11:39:14;;;;;;;6.30;4.47;;;13.50;99.90;;;;;;5000254;28;20188;-84
2021/10/09 11:41:43;;;;;;;8.68;5.20;;;13.40;99.90;;;;;;4984729;28;20193;-83
2021/10/09 11:44:26;;;;;;;10.73;5.78;;;13.40;99.90;;;;;;4982549;28;20255;-84
2021/10/09 11:47:21;;;;;;;8.45;5.15;;;13.50;99.90;;;;;;4983489;28;20213;-85
2021/10/09 11:55:49;;;;;;;7.47;5.10;;;13.80;99.90;;;;;;4991677;28;20203;-85
2021/10/09 11:58:14;;;;;;;12.23;4.90;;;13.90;99.90;;;;;;5006687;28;20188;-84
2021/10/09 12:00:40;;;;;;;8.95;5.35;;;13.90;99.90;;;;;;4995879;28;20210;-85
2021/10/09 12:03:26;;;;;;;5.60;4.38;;;13.90;99.90;;;;;;4992853;28;20259;-85
2021/10/09 12:05:55;;;;;;;8.07;5.25;;;13.90;99.90;;;;;;4983905;28;20200;-84
2021/10/09 12:08:27;;;;;;;5.32;4.38;;;14.00;99.90;;;;;;4990932;28;20200;-79
2021/10/09 12:11:14;;;;;;;8.32;5.03;;;14.10;99.90;;;;;;4990656;28;20526;-81
2021/10/09 12:13:55;;;;;;;8.38;5.25;;;14.10;99.90;;;;;;4990940;28;20573;-81
2021/10/09 12:16:31;;;;;;;7.78;4.90;;;14.20;99.90;;;;;;4991462;28;20625;-84
2021/10/09 12:19:09;;;;;;;6.00;4.65;;;14.20;99.90;;;;;;4988417;28;20233;-82
2021/10/09 12:21:37;;;;;;;6.13;4.50;;;14.20;99.90;;;;;;4990784;28;20212;-83
2021/10/09 12:24:14;;;;;;;6.05;4.47;;;14.20;99.90;;;;;;4991913;28;20176;-82
2021/10/09 12:26:40;;;;;;;8.68;4.43;;;14.20;99.90;;;;;;4989599;28;20183;-81
2021/10/09 12:29:14;;;;;;;10.27;4.32;;;14.20;99.90;;;;;;4991246;28;20212;-82
2021/10/09 12:31:45;;;;;;;7.03;4.75;;;14.30;99.90;;;;;;4990075;28;20171;-81
2021/10/09 12:34:32;;;;;;;6.40;3.80;;;14.30;99.90;;;;;;4991699;28;20647;-81
2021/10/09 12:37:25;;;;;;;7.43;4.45;;;14.30;99.90;;;;;;4989339;28;20953;-82
2021/10/09 12:40:11;;;;;;;8.40;4.13;;;14.30;99.90;;;;;;4988089;28;20192;-82
2021/10/09 12:42:37;;;;;;;6.28;3.88;;;14.30;99.90;;;;;;4988998;28;20247;-81
2021/10/09 12:48:25;;;;;;;6.18;3.88;;;14.40;99.90;;;;;;4989973;28;20179;-81
2021/10/09 12:50:50;;;;;;;5.68;3.92;;;14.50;99.90;;;;;;4987550;28;20180;-81
2021/10/09 12:53:16;;;;;;;6.13;3.90;;;14.50;99.90;;;;;;4988584;28;20184;-84
2021/10/09 12:55:42;;;;;;;6.05;4.25;;;14.60;99.90;;;;;;4987184;28;20203;-80
2021/10/09 12:58:09;;;;;;;5.93;3.78;;;14.60;99.90;;;;;;4987080;28;20267;-81
2021/10/09 13:00:36;;;;;;;5.07;3.55;;;14.50;99.90;;;;;;4987796;28;20172;-81
2021/10/09 13:03:02;;;;;;;8.07;3.42;;;14.70;99.90;;;;;;4983241;28;20368;-85
2021/10/09 13:05:29;;;;;;;4.28;3.15;;;14.60;99.90;;;;;;4984046;28;20211;-85
2021/10/09 13:07:58;;;;;;;8.23;3.85;;;14.70;99.90;;;;;;4986126;28;20746;-85
2021/10/09 13:10:23;;;;;;;7.82;4.53;;;14.70;99.90;;;;;;4985295;28;20685;-85
2021/10/09 13:12:50;;;;;;;5.72;3.55;;;14.60;99.90;;;;;;4985471;28;20183;-85
2021/10/09 13:15:20;;;;;;;5.35;3.42;;;14.70;99.90;;;;;;4985475;28;20211;-85
2021/10/09 13:17:48;;;;;;;6.20;3.10;;;14.70;99.90;;;;;;4985629;28;20184;-84
2021/10/09 13:20:14;;;;;;;4.70;3.53;;;14.80;99.40;;;;;;4985454;28;20243;-85
2021/10/09 13:22:40;;;;;;;8.10;3.88;;;14.80;99.90;;;;;;4987457;28;20774;-84
2021/10/09 13:25:06;;;;;;;5.88;3.38;;;14.80;99.80;;;;;;4990936;28;20200;-85
2021/10/09 13:27:32;;;;;;;5.22;3.00;;;14.90;99.70;;;;;;5008955;28;20188;-85
2021/10/09 13:29:59;;;;;;;6.18;3.40;;;14.90;98.40;;;;;;5009926;28;20295;-84
2021/10/09 13:32:25;;;;;;;7.07;3.70;;;14.80;99.20;;;;;;4989769;28;20690;-85
2021/10/09 13:34:50;;;;;;;5.65;3.05;;;14.80;99.10;;;;;;4990137;28;20263;-86
2021/10/09 13:37:25;;;;;;;7.95;3.42;;;14.80;99.00;;;;;;4987966;28;20196;-86
2021/10/09 13:39:53;;;;;;;5.95;3.60;;;14.70;98.30;;;;;;4989066;28;20186;-85
2021/10/09 13:42:19;;;;;;;4.05;3.00;;;14.60;99.00;;;;;;4987975;28;20194;-85
2021/10/09 13:44:45;;;;;;;5.85;3.53;;;14.60;99.90;;;;;;4986822;28;20499;-84
2021/10/09 13:47:11;;;;;;;8.32;3.50;;;14.60;99.90;;;;;;4987469;28;20288;-84
2021/10/09 13:49:37;;;;;;;5.38;3.03;;;14.60;99.70;;;;;;4989675;28;20216;-82
2021/10/09 13:52:04;;;;;;;5.25;3.28;;;14.60;99.90;;;;;;4990381;28;20184;-84
2021/10/09 13:54:29;;;;;;;9.15;3.35;;;14.60;99.90;;;;;;4989140;28;20673;-81
2021/10/09 13:56:55;;;;;;;4.85;2.80;;;14.60;99.90;;;;;;4989602;28;20176;-81
2021/10/09 13:59:21;;;;;;;3.97;2.78;;;14.60;99.90;;;;;;4989913;28;20677;-84
2021/10/09 14:01:48;;;;;;;4.10;3.20;;;14.60;99.90;;;;;;4989872;28;20218;-84
2021/10/09 14:04:14;;;;;;;4.43;2.63;;;14.60;99.90;;;;;;4990551;28;20212;-82
2021/10/09 14:06:39;;;;;;;7.07;3.00;;;14.60;99.90;;;;;;4989052;28;20211;-84
2021/10/09 14:09:05;;;;;;;5.30;3.03;;;14.60;99.90;;;;;;4989989;28;20234;-81
2021/10/09 14:11:31;;;;;;;3.28;2.42;;;14.60;99.90;;;;;;4990774;28;20195;-83
2021/10/09 14:13:57;;;;;;;3.55;2.25;;;14.50;99.90;;;;;;4987904;28;20180;-83
2021/10/09 14:16:23;;;;;;;3.45;2.58;;;14.50;99.90;;;;;;4989047;28;20320;-82
2021/10/09 14:18:49;;;;;;;3.90;2.78;;;14.50;99.90;;;;;;4988771;28;20184;-82
2021/10/09 14:21:14;;;;;;;10.95;2.90;;;14.40;99.90;;;;;;4988175;28;20283;-81
2021/10/09 14:23:41;;;;;;;3.65;2.60;;;14.40;99.90;;;;;;4987901;28;20196;-83
2021/10/09 14:26:07;;;;;;;5.70;2.60;;;14.40;99.90;;;;;;4987996;28;20231;-82
2021/10/09 14:28:33;;;;;;;4.90;2.55;;;14.50;99.90;;;;;;4988617;28;20645;-82
2021/10/09 14:30:59;;;;;;;4.25;2.58;;;14.40;99.90;;;;;;4988087;28;20238;-81
2021/10/09 14:33:24;;;;;;;3.92;2.47;;;14.40;99.90;;;;;;4989587;28;20180;-82
2021/10/09 14:35:50;;;;;;;4.88;2.78;;;14.40;99.90;;;;;;4987825;28;20371;-83
2021/10/09 14:38:16;;;;;;;4.82;2.63;;;14.50;99.90;;;;;;4988145;28;20180;-84
2021/10/09 14:40:44;;;;;;;3.63;2.35;;;14.40;99.90;;;;;;4987299;28;20187;-81
2021/10/09 14:43:11;;;;;;;4.45;2.85;;;14.40;99.90;;;;;;4988355;28;20191;-82
2021/10/09 14:45:38;;;;;;;4.80;3.22;;;14.30;99.90;;;;;;4987546;28;20204;-84
2021/10/09 14:48:08;;;;;;;4.57;2.75;;;14.30;99.90;;;;;;4988567;28;20179;-84
2021/10/09 15:19:44;;;;;;;4.60;2.50;;;13.80;99.90;;;;;;4986702;28;20696;-84
2021/10/09 15:22:10;;;;;;;5.03;2.45;;;13.80;99.90;;;;;;4987502;28;20654;-84
2021/10/09 15:24:36;;;;;;;4.50;2.63;;;13.70;99.90;;;;;;5000014;28;20249;-80
2021/10/09 15:27:02;;;;;;;2.83;2.50;;;13.70;99.90;;;;;;4985242;28;20274;-80
2021/10/09 15:29:28;;;;;;;3.97;2.58;;;13.60;99.90;;;;;;4985652;28;20199;-82